Wolfe, West Virginia
Current Conditions -  °F | °C
As of 12:52 AM on Sunday 21 Dec 2014 (Local Time) from KBLF Reporting Station
Haze Haze  
Wind Chill: 33°   Ceiling: 300
Heat Index: 33°   Visibility: 6mi
Dew Point: 30°   Wind: 0mph
Humidity: 89%   Direction: NA
Pressure: 30.18"   Gusts: NA
Location:  37.31°N, 81.33°W
Report Text: KBLF 210552Z AUTO 00000KT 6SM BR BKN003 OVC018 01/M01 A3018 RMK AO2 SLP232 60000 T00061011 10017 20006 55004
Loading
Personal Weather Stations






























Interactive Weather Map New forecast layout! Learn more

10-Day Weather Forecast

Advertisements
Track Severe Weather on mobile